sensor_id;sensor_type;location;lat;lon;timestamp;temperature;humidity
5978;DHT22;3015;51.390;12.256;2022-10-16T00:01:12;13.20;1.00
5978;DHT22;3015;51.390;12.256;2022-10-16T00:03:41;13.20;99.90
5978;DHT22;3015;51.390;12.256;2022-10-16T00:06:09;13.20;99.90
5978;DHT22;3015;51.390;12.256;2022-10-16T00:08:35;13.30;1.00
5978;DHT22;3015;51.390;12.256;2022-10-16T00:11:12;13.30;99.90
5978;DHT22;3015;51.390;12.256;2022-10-16T00:13:40;13.50;79.70
5978;DHT22;3015;51.390;12.256;2022-10-16T00:16:06;13.70;99.90
5978;DHT22;3015;51.390;12.256;2022-10-16T00:18:32;13.80;99.90
5978;DHT22;3015;51.390;12.256;2022-10-16T00:21:06;14.00;99.90
5978;DHT22;3015;51.390;12.256;2022-10-16T00:23:32;14.00;99.90
5978;DHT22;3015;51.390;12.256;2022-10-16T00:26:01;14.10;99.90
5978;DHT22;3015;51.390;12.256;2022-10-16T00:28:27;14.30;99.90
5978;DHT22;3015;51.390;12.256;2022-10-16T00:30:53;14.50;17.20
5978;DHT22;3015;51.390;12.256;2022-10-16T00:33:19;14.50;1.00
5978;DHT22;3015;51.390;12.256;2022-10-16T00:35:46;14.60;1.00
5978;DHT22;3015;51.390;12.256;2022-10-16T00:38:11;14.80;1.00
5978;DHT22;3015;51.390;12.256;2022-10-16T00:40:37;14.80;99.90
5978;DHT22;3015;51.390;12.256;2022-10-16T00:45:53;15.00;1.00
5978;DHT22;3015;51.390;12.256;2022-10-16T00:48:19;15.10;99.90
5978;DHT22;3015;51.390;12.256;2022-10-16T00:50:44;15.20;1.00
5978;DHT22;3015;51.390;12.256;2022-10-16T00:53:10;15.20;99.90
5978;DHT22;3015;51.390;12.256;2022-10-16T00:55:36;15.20;99.90
5978;DHT22;3015;51.390;12.256;2022-10-16T00:58:02;15.10;99.90
5978;DHT22;3015;51.390;12.256;2022-10-16T01:00:27;15.00;1.00
5978;DHT22;3015;51.390;12.256;2022-10-16T01:02:59;14.80;1.00
5978;DHT22;3015;51.390;12.256;2022-10-16T01:05:39;14.70;1.00
5978;DHT22;3015;51.390;12.256;2022-10-16T01:08:18;14.60;1.00
5978;DHT22;3015;51.390;12.256;2022-10-16T01:10:57;14.50;1.00
5978;DHT22;3015;51.390;12.256;2022-10-16T01:13:29;14.60;5.00
5978;DHT22;3015;51.390;12.256;2022-10-16T01:15:59;14.60;1.00
5978;DHT22;3015;51.390;12.256;2022-10-16T01:18:56;14.60;99.90
5978;DHT22;3015;51.390;12.256;2022-10-16T01:21:26;14.60;1.00
5978;DHT22;3015;51.390;12.256;2022-10-16T01:24:17;14.50;99.90
5978;DHT22;3015;51.390;12.256;2022-10-16T01:32:05;14.30;99.90
5978;DHT22;3015;51.390;12.256;2022-10-16T01:34:45;14.30;99.90
5978;DHT22;3015;51.390;12.256;2022-10-16T01:37:15;14.20;99.90
5978;DHT22;3015;51.390;12.256;2022-10-16T01:39:45;14.30;99.90
5978;DHT22;3015;51.390;12.256;2022-10-16T01:42:16;14.40;1.00
5978;DHT22;3015;51.390;12.256;2022-10-16T01:44:45;14.40;99.90
5978;DHT22;3015;51.390;12.256;2022-10-16T01:47:13;14.40;1.00
5978;DHT22;3015;51.390;12.256;2022-10-16T01:49:41;14.30;99.90
5978;DHT22;3015;51.390;12.256;2022-10-16T01:52:15;14.20;1.00
5978;DHT22;3015;51.390;12.256;2022-10-16T01:54:44;14.10;99.90
5978;DHT22;3015;51.390;12.256;2022-10-16T01:57:12;13.90;4.90
5978;DHT22;3015;51.390;12.256;2022-10-16T01:59:44;13.80;99.90
5978;DHT22;3015;51.390;12.256;2022-10-16T02:02:11;13.70;99.90
5978;DHT22;3015;51.390;12.256;2022-10-16T02:04:43;13.60;99.90
5978;DHT22;3015;51.390;12.256;2022-10-16T02:07:10;13.50;1.00
5978;DHT22;3015;51.390;12.256;2022-10-16T02:09:36;13.40;1.00
5978;DHT22;3015;51.390;12.256;2022-10-16T02:12:26;13.30;1.00
5978;DHT22;3015;51.390;12.256;2022-10-16T02:14:52;13.30;1.00
5978;DHT22;3015;51.390;12.256;2022-10-16T02:17:19;13.30;1.00
5978;DHT22;3015;51.390;12.256;2022-10-16T02:19:47;13.20;1.00
5978;DHT22;3015;51.390;12.256;2022-10-16T02:22:27;13.20;1.00
5978;DHT22;3015;51.390;12.256;2022-10-16T02:27:55;13.00;99.90
5978;DHT22;3015;51.390;12.256;2022-10-16T02:30:51;13.00;1.00
5978;DHT22;3015;51.390;12.256;2022-10-16T02:33:21;12.90;1.00
5978;DHT22;3015;51.390;12.256;2022-10-16T02:35:49;12.90;1.00
5978;DHT22;3015;51.390;12.256;2022-10-16T02:38:17;12.90;1.00
5978;DHT22;3015;51.390;12.256;2022-10-16T02:40:43;12.80;1.00
5978;DHT22;3015;51.390;12.256;2022-10-16T02:43:09;12.70;1.00
5978;DHT22;3015;51.390;12.256;2022-10-16T02:45:35;12.60;1.00
5978;DHT22;3015;51.390;12.256;2022-10-16T02:48:01;12.50;1.00
5978;DHT22;3015;51.390;12.256;2022-10-16T02:50:26;12.50;1.00
5978;DHT22;3015;51.390;12.256;2022-10-16T02:52:52;12.50;1.00
5978;DHT22;3015;51.390;12.256;2022-10-16T02:55:18;12.50;1.00
5978;DHT22;3015;51.390;12.256;2022-10-16T02:57:43;12.50;1.00
5978;DHT22;3015;51.390;12.256;2022-10-16T03:00:11;12.40;1.00
5978;DHT22;3015;51.390;12.256;2022-10-16T03:02:37;12.30;1.00
5978;DHT22;3015;51.390;12.256;2022-10-16T03:05:03;12.20;1.00
5978;DHT22;3015;51.390;12.256;2022-10-16T03:07:29;12.20;1.00
5978;DHT22;3015;51.390;12.256;2022-10-16T03:09:54;12.20;25.30
5978;DHT22;3015;51.390;12.256;2022-10-16T03:12:21;12.20;1.00
5978;DHT22;3015;51.390;12.256;2022-10-16T03:14:47;12.10;1.00
5978;DHT22;3015;51.390;12.256;2022-10-16T03:17:12;12.10;1.00
5978;DHT22;3015;51.390;12.256;2022-10-16T03:19:39;12.10;1.00
5978;DHT22;3015;51.390;12.256;2022-10-16T03:22:04;12.10;1.00
5978;DHT22;3015;51.390;12.256;2022-10-16T03:24:30;12.10;1.00
5978;DHT22;3015;51.390;12.256;2022-10-16T03:26:56;12.20;1.00
5978;DHT22;3015;51.390;12.256;2022-10-16T03:29:21;12.10;1.00
5978;DHT22;3015;51.390;12.256;2022-10-16T03:31:47;12.10;1.00
5978;DHT22;3015;51.390;12.256;2022-10-16T03:34:14;12.20;1.00
5978;DHT22;3015;51.390;12.256;2022-10-16T03:36:40;12.10;1.00
5978;DHT22;3015;51.390;12.256;2022-10-16T03:39:06;12.10;1.00
5978;DHT22;3015;51.390;12.256;2022-10-16T03:41:31;12.00;1.00
5978;DHT22;3015;51.390;12.256;2022-10-16T03:43:57;12.00;1.00
5978;DHT22;3015;51.390;12.256;2022-10-16T03:46:22;11.90;1.00
5978;DHT22;3015;51.390;12.256;2022-10-16T03:48:48;11.90;1.00
5978;DHT22;3015;51.390;12.256;2022-10-16T03:51:13;11.90;1.00
5978;DHT22;3015;51.390;12.256;2022-10-16T03:53:39;11.80;1.00
5978;DHT22;3015;51.390;12.256;2022-10-16T03:56:05;11.80;1.00
5978;DHT22;3015;51.390;12.256;2022-10-16T03:58:31;11.80;1.00
5978;DHT22;3015;51.390;12.256;2022-10-16T04:00:56;11.80;1.00
5978;DHT22;3015;51.390;12.256;2022-10-16T04:03:22;11.80;1.00
5978;DHT22;3015;51.390;12.256;2022-10-16T04:05:48;11.80;1.00
5978;DHT22;3015;51.390;12.256;2022-10-16T04:08:14;11.80;1.00
5978;DHT22;3015;51.390;12.256;2022-10-16T04:10:42;11.80;1.00
5978;DHT22;3015;51.390;12.256;2022-10-16T04:13:08;11.80;1.00
5978;DHT22;3015;51.390;12.256;2022-10-16T04:15:34;11.70;1.00
5978;DHT22;3015;51.390;12.256;2022-10-16T04:18:00;11.70;1.00
5978;DHT22;3015;51.390;12.256;2022-10-16T04:20:25;11.80;82.50
5978;DHT22;3015;51.390;12.256;2022-10-16T04:22:51;11.80;32.80
5978;DHT22;3015;51.390;12.256;2022-10-16T04:25:17;11.80;99.90
5978;DHT22;3015;51.390;12.256;2022-10-16T04:27:42;11.80;1.00
5978;DHT22;3015;51.390;12.256;2022-10-16T04:30:08;11.70;1.00
5978;DHT22;3015;51.390;12.256;2022-10-16T04:32:34;11.80;99.90
5978;DHT22;3015;51.390;12.256;2022-10-16T04:34:59;11.70;58.70
5978;DHT22;3015;51.390;12.256;2022-10-16T04:37:26;11.70;1.00
5978;DHT22;3015;51.390;12.256;2022-10-16T04:39:53;11.60;1.00
5978;DHT22;3015;51.390;12.256;2022-10-16T04:42:19;11.50;1.00
5978;DHT22;3015;51.390;12.256;2022-10-16T04:44:44;11.50;26.90
5978;DHT22;3015;51.390;12.256;2022-10-16T04:47:10;11.50;58.00
5978;DHT22;3015;51.390;12.256;2022-10-16T04:49:35;11.50;99.90
5978;DHT22;3015;51.390;12.256;2022-10-16T04:52:01;11.50;99.90
5978;DHT22;3015;51.390;12.256;2022-10-16T04:54:27;11.50;99.90
5978;DHT22;3015;51.390;12.256;2022-10-16T04:56:52;11.70;99.90
5978;DHT22;3015;51.390;12.256;2022-10-16T04:59:19;11.60;97.90
5978;DHT22;3015;51.390;12.256;2022-10-16T05:01:45;11.60;98.00
5978;DHT22;3015;51.390;12.256;2022-10-16T05:04:11;11.50;52.60
5978;DHT22;3015;51.390;12.256;2022-10-16T05:06:37;11.50;45.20
5978;DHT22;3015;51.390;12.256;2022-10-16T05:09:04;11.50;84.80
5978;DHT22;3015;51.390;12.256;2022-10-16T05:11:30;11.50;90.00
5978;DHT22;3015;51.390;12.256;2022-10-16T05:13:56;11.50;97.60
5978;DHT22;3015;51.390;12.256;2022-10-16T05:16:21;11.50;99.90
5978;DHT22;3015;51.390;12.256;2022-10-16T05:18:47;11.50;99.90
5978;DHT22;3015;51.390;12.256;2022-10-16T05:21:13;11.50;99.90
5978;DHT22;3015;51.390;12.256;2022-10-16T05:23:39;11.50;99.90
5978;DHT22;3015;51.390;12.256;2022-10-16T05:26:04;11.50;99.90
5978;DHT22;3015;51.390;12.256;2022-10-16T05:28:30;11.60;99.90
5978;DHT22;3015;51.390;12.256;2022-10-16T05:30:56;11.70;99.90
5978;DHT22;3015;51.390;12.256;2022-10-16T05:33:24;11.80;99.90
5978;DHT22;3015;51.390;12.256;2022-10-16T05:35:50;11.90;99.90
5978;DHT22;3015;51.390;12.256;2022-10-16T05:38:17;11.90;99.90
5978;DHT22;3015;51.390;12.256;2022-10-16T05:40:43;11.80;99.90
5978;DHT22;3015;51.390;12.256;2022-10-16T05:43:09;11.80;99.90
5978;DHT22;3015;51.390;12.256;2022-10-16T05:45:34;11.80;99.90
5978;DHT22;3015;51.390;12.256;2022-10-16T05:48:00;11.80;99.90
5978;DHT22;3015;51.390;12.256;2022-10-16T05:50:26;11.80;99.90
5978;DHT22;3015;51.390;12.256;2022-10-16T05:52:52;11.80;99.90
5978;DHT22;3015;51.390;12.256;2022-10-16T05:55:18;11.90;99.90
5978;DHT22;3015;51.390;12.256;2022-10-16T05:57:44;12.00;99.90
5978;DHT22;3015;51.390;12.256;2022-10-16T06:00:10;12.00;99.90
5978;DHT22;3015;51.390;12.256;2022-10-16T06:02:36;12.10;99.90
5978;DHT22;3015;51.390;12.256;2022-10-16T06:05:01;12.20;99.90
5978;DHT22;3015;51.390;12.256;2022-10-16T06:07:27;12.30;99.90
5978;DHT22;3015;51.390;12.256;2022-10-16T06:09:53;12.40;99.90
5978;DHT22;3015;51.390;12.256;2022-10-16T06:12:19;12.40;99.90
5978;DHT22;3015;51.390;12.256;2022-10-16T06:14:46;12.50;99.90
5978;DHT22;3015;51.390;12.256;2022-10-16T06:17:13;12.60;99.90
5978;DHT22;3015;51.390;12.256;2022-10-16T06:19:39;12.70;99.90
5978;DHT22;3015;51.390;12.256;2022-10-16T06:22:05;12.80;99.90
5978;DHT22;3015;51.390;12.256;2022-10-16T06:24:31;12.90;99.90
5978;DHT22;3015;51.390;12.256;2022-10-16T06:26:57;13.00;99.90
5978;DHT22;3015;51.390;12.256;2022-10-16T06:29:22;13.10;99.90
5978;DHT22;3015;51.390;12.256;2022-10-16T06:31:48;13.10;88.70
5978;DHT22;3015;51.390;12.256;2022-10-16T06:34:13;13.10;52.50
5978;DHT22;3015;51.390;12.256;2022-10-16T06:36:40;13.20;31.40
5978;DHT22;3015;51.390;12.256;2022-10-16T06:39:06;13.30;99.90
5978;DHT22;3015;51.390;12.256;2022-10-16T06:41:33;13.40;99.90
5978;DHT22;3015;51.390;12.256;2022-10-16T06:43:59;13.50;99.90
5978;DHT22;3015;51.390;12.256;2022-10-16T06:46:25;13.50;99.90
5978;DHT22;3015;51.390;12.256;2022-10-16T06:48:52;13.50;99.90
5978;DHT22;3015;51.390;12.256;2022-10-16T06:51:20;13.50;99.90
5978;DHT22;3015;51.390;12.256;2022-10-16T06:53:48;13.60;99.90
5978;DHT22;3015;51.390;12.256;2022-10-16T06:56:25;13.60;99.90
5978;DHT22;3015;51.390;12.256;2022-10-16T06:58:52;13.70;99.90
5978;DHT22;3015;51.390;12.256;2022-10-16T07:01:19;13.70;99.90
5978;DHT22;3015;51.390;12.256;2022-10-16T07:03:45;13.70;99.90
5978;DHT22;3015;51.390;12.256;2022-10-16T07:06:14;13.80;99.90
5978;DHT22;3015;51.390;12.256;2022-10-16T07:08:41;13.80;99.90
5978;DHT22;3015;51.390;12.256;2022-10-16T07:11:16;13.90;99.90
5978;DHT22;3015;51.390;12.256;2022-10-16T07:13:43;14.10;99.90
5978;DHT22;3015;51.390;12.256;2022-10-16T07:16:13;14.40;99.90
5978;DHT22;3015;51.390;12.256;2022-10-16T07:18:39;14.60;99.90
5978;DHT22;3015;51.390;12.256;2022-10-16T07:21:15;14.90;99.90
5978;DHT22;3015;51.390;12.256;2022-10-16T07:23:42;15.00;1.00
5978;DHT22;3015;51.390;12.256;2022-10-16T07:26:08;15.00;1.00
5978;DHT22;3015;51.390;12.256;2022-10-16T07:28:34;15.10;1.00
5978;DHT22;3015;51.390;12.256;2022-10-16T07:31:01;15.20;1.00
5978;DHT22;3015;51.390;12.256;2022-10-16T07:33:27;15.40;1.00
5978;DHT22;3015;51.390;12.256;2022-10-16T07:35:54;15.50;1.00
5978;DHT22;3015;51.390;12.256;2022-10-16T07:38:21;15.50;99.90
5978;DHT22;3015;51.390;12.256;2022-10-16T07:40:46;15.60;99.90
5978;DHT22;3015;51.390;12.256;2022-10-16T07:43:12;15.60;99.90
5978;DHT22;3015;51.390;12.256;2022-10-16T07:45:47;15.70;99.90
5978;DHT22;3015;51.390;12.256;2022-10-16T07:48:12;15.80;99.90
5978;DHT22;3015;51.390;12.256;2022-10-16T07:50:38;16.00;99.90
5978;DHT22;3015;51.390;12.256;2022-10-16T07:53:04;16.20;99.90
5978;DHT22;3015;51.390;12.256;2022-10-16T07:55:29;16.30;1.00
5978;DHT22;3015;51.390;12.256;2022-10-16T07:57:55;16.60;1.00
5978;DHT22;3015;51.390;12.256;2022-10-16T08:00:20;16.90;1.00
5978;DHT22;3015;51.390;12.256;2022-10-16T08:02:46;17.20;99.90
5978;DHT22;3015;51.390;12.256;2022-10-16T08:05:12;17.50;99.90
5978;DHT22;3015;51.390;12.256;2022-10-16T08:07:37;18.20;99.90
5978;DHT22;3015;51.390;12.256;2022-10-16T08:10:04;18.80;1.00
5978;DHT22;3015;51.390;12.256;2022-10-16T08:12:29;19.90;1.00
5978;DHT22;3015;51.390;12.256;2022-10-16T08:14:55;20.80;99.90
5978;DHT22;3015;51.390;12.256;2022-10-16T08:17:20;22.00;1.00
5978;DHT22;3015;51.390;12.256;2022-10-16T08:19:47;24.00;1.00
5978;DHT22;3015;51.390;12.256;2022-10-16T08:22:13;24.30;99.90
5978;DHT22;3015;51.390;12.256;2022-10-16T08:24:39;24.10;99.90
5978;DHT22;3015;51.390;12.256;2022-10-16T08:27:05;23.50;99.90
5978;DHT22;3015;51.390;12.256;2022-10-16T08:29:31;22.70;99.90
5978;DHT22;3015;51.390;12.256;2022-10-16T08:31:57;22.00;99.90
5978;DHT22;3015;51.390;12.256;2022-10-16T08:34:22;21.40;99.90
5978;DHT22;3015;51.390;12.256;2022-10-16T08:36:48;21.00;99.90
5978;DHT22;3015;51.390;12.256;2022-10-16T08:39:13;20.90;1.00
5978;DHT22;3015;51.390;12.256;2022-10-16T08:50:00;20.90;1.00
5978;DHT22;3015;51.390;12.256;2022-10-16T08:52:30;20.70;1.00
5978;DHT22;3015;51.390;12.256;2022-10-16T08:54:58;20.70;1.00
5978;DHT22;3015;51.390;12.256;2022-10-16T08:57:25;20.70;1.00
5978;DHT22;3015;51.390;12.256;2022-10-16T08:59:52;20.80;1.00
5978;DHT22;3015;51.390;12.256;2022-10-16T09:02:40;21.00;1.00
5978;DHT22;3015;51.390;12.256;2022-10-16T09:08:07;21.00;99.90
5978;DHT22;3015;51.390;12.256;2022-10-16T09:21:31;25.60;99.90
5978;DHT22;3015;51.390;12.256;2022-10-16T09:24:06;25.80;99.90
5978;DHT22;3015;51.390;12.256;2022-10-16T09:26:35;25.00;99.90
5978;DHT22;3015;51.390;12.256;2022-10-16T09:29:01;23.90;99.90
5978;DHT22;3015;51.390;12.256;2022-10-16T09:31:28;22.80;99.90
5978;DHT22;3015;51.390;12.256;2022-10-16T09:34:00;22.10;99.90
5978;DHT22;3015;51.390;12.256;2022-10-16T09:36:41;21.70;99.90
5978;DHT22;3015;51.390;12.256;2022-10-16T09:39:10;21.50;99.90
5978;DHT22;3015;51.390;12.256;2022-10-16T09:41:39;21.30;99.90
5978;DHT22;3015;51.390;12.256;2022-10-16T09:44:18;21.50;99.90
5978;DHT22;3015;51.390;12.256;2022-10-16T09:46:45;22.50;99.90
5978;DHT22;3015;51.390;12.256;2022-10-16T09:49:24;23.40;99.90
5978;DHT22;3015;51.390;12.256;2022-10-16T09:51:51;24.00;99.90
5978;DHT22;3015;51.390;12.256;2022-10-16T09:54:27;23.90;99.90
5978;DHT22;3015;51.390;12.256;2022-10-16T09:57:04;23.60;99.90
5978;DHT22;3015;51.390;12.256;2022-10-16T09:59:31;23.30;99.90
5978;DHT22;3015;51.390;12.256;2022-10-16T10:02:02;22.60;99.90
5978;DHT22;3015;51.390;12.256;2022-10-16T10:04:40;22.10;99.90
5978;DHT22;3015;51.390;12.256;2022-10-16T10:07:06;21.70;99.90
5978;DHT22;3015;51.390;12.256;2022-10-16T10:09:44;21.50;99.90
5978;DHT22;3015;51.390;12.256;2022-10-16T10:12:23;21.30;99.90
5978;DHT22;3015;51.390;12.256;2022-10-16T10:14:54;21.40;99.90
5978;DHT22;3015;51.390;12.256;2022-10-16T10:17:26;21.50;99.90
5978;DHT22;3015;51.390;12.256;2022-10-16T10:19:53;21.50;99.90
5978;DHT22;3015;51.390;12.256;2022-10-16T10:33:31;20.90;99.90
5978;DHT22;3015;51.390;12.256;2022-10-16T10:38:49;21.10;99.90
5978;DHT22;3015;51.390;12.256;2022-10-16T10:44:42;21.00;99.90
5978;DHT22;3015;51.390;12.256;2022-10-16T10:47:31;21.00;99.90
5978;DHT22;3015;51.390;12.256;2022-10-16T11:05:56;21.00;99.90
5978;DHT22;3015;51.390;12.256;2022-10-16T11:08:32;21.10;99.90
5978;DHT22;3015;51.390;12.256;2022-10-16T11:11:22;21.20;99.90
5978;DHT22;3015;51.390;12.256;2022-10-16T11:13:58;21.20;99.90
5978;DHT22;3015;51.390;12.256;2022-10-16T11:16:31;21.30;99.90
5978;DHT22;3015;51.390;12.256;2022-10-16T11:19:22;21.30;99.90
5978;DHT22;3015;51.390;12.256;2022-10-16T11:21:56;21.30;99.90
5978;DHT22;3015;51.390;12.256;2022-10-16T11:24:37;21.30;99.90
5978;DHT22;3015;51.390;12.256;2022-10-16T11:27:08;21.40;99.90
5978;DHT22;3015;51.390;12.256;2022-10-16T11:29:45;21.40;99.90
5978;DHT22;3015;51.390;12.256;2022-10-16T11:32:26;21.40;99.90
5978;DHT22;3015;51.390;12.256;2022-10-16T11:34:59;21.50;99.90
5978;DHT22;3015;51.390;12.256;2022-10-16T11:37:36;21.60;99.90
5978;DHT22;3015;51.390;12.256;2022-10-16T11:40:24;21.70;99.90
5978;DHT22;3015;51.390;12.256;2022-10-16T11:43:17;21.80;99.90
5978;DHT22;3015;51.390;12.256;2022-10-16T11:45:49;21.70;99.90
5978;DHT22;3015;51.390;12.256;2022-10-16T11:48:32;21.80;99.90
5978;DHT22;3015;51.390;12.256;2022-10-16T11:51:19;21.80;99.90
5978;DHT22;3015;51.390;12.256;2022-10-16T11:56:28;22.00;99.90
5978;DHT22;3015;51.390;12.256;2022-10-16T12:01:53;22.10;99.90
5978;DHT22;3015;51.390;12.256;2022-10-16T12:04:31;22.20;99.90
5978;DHT22;3015;51.390;12.256;2022-10-16T12:09:31;22.10;99.90
5978;DHT22;3015;51.390;12.256;2022-10-16T12:11:58;22.20;99.90
5978;DHT22;3015;51.390;12.256;2022-10-16T12:17:25;22.50;99.90
5978;DHT22;3015;51.390;12.256;2022-10-16T12:20:00;22.60;99.90
5978;DHT22;3015;51.390;12.256;2022-10-16T12:22:29;22.90;99.90
5978;DHT22;3015;51.390;12.256;2022-10-16T12:24:56;23.10;99.90
5978;DHT22;3015;51.390;12.256;2022-10-16T12:27:28;23.50;99.90
5978;DHT22;3015;51.390;12.256;2022-10-16T12:30:00;23.60;99.90
5978;DHT22;3015;51.390;12.256;2022-10-16T12:32:33;23.50;99.90
5978;DHT22;3015;51.390;12.256;2022-10-16T12:35:00;23.30;99.90
5978;DHT22;3015;51.390;12.256;2022-10-16T12:37:33;23.30;99.90
5978;DHT22;3015;51.390;12.256;2022-10-16T12:40:12;23.50;99.90
5978;DHT22;3015;51.390;12.256;2022-10-16T12:42:38;24.00;99.90
5978;DHT22;3015;51.390;12.256;2022-10-16T12:45:24;23.90;99.90
5978;DHT22;3015;51.390;12.256;2022-10-16T12:47:52;23.40;99.90
5978;DHT22;3015;51.390;12.256;2022-10-16T12:50:38;23.30;99.90
5978;DHT22;3015;51.390;12.256;2022-10-16T12:58:57;22.80;99.90
5978;DHT22;3015;51.390;12.256;2022-10-16T13:09:50;23.30;99.90
5978;DHT22;3015;51.390;12.256;2022-10-16T13:12:40;24.40;99.90
5978;DHT22;3015;51.390;12.256;2022-10-16T13:15:27;24.90;99.90
5978;DHT22;3015;51.390;12.256;2022-10-16T13:18:22;25.20;99.90
5978;DHT22;3015;51.390;12.256;2022-10-16T13:21:05;25.60;99.90
5978;DHT22;3015;51.390;12.256;2022-10-16T13:28:49;26.00;99.90
5978;DHT22;3015;51.390;12.256;2022-10-16T13:31:23;25.60;99.90
5978;DHT22;3015;51.390;12.256;2022-10-16T13:33:52;25.00;99.90
5978;DHT22;3015;51.390;12.256;2022-10-16T13:36:25;24.80;99.90
5978;DHT22;3015;51.390;12.256;2022-10-16T13:39:16;24.30;99.90
5978;DHT22;3015;51.390;12.256;2022-10-16T13:41:46;23.70;99.90
5978;DHT22;3015;51.390;12.256;2022-10-16T13:44:22;23.40;99.90
5978;DHT22;3015;51.390;12.256;2022-10-16T13:46:59;23.10;99.90
5978;DHT22;3015;51.390;12.256;2022-10-16T13:49:25;22.90;99.90
5978;DHT22;3015;51.390;12.256;2022-10-16T13:51:56;22.60;99.90
5978;DHT22;3015;51.390;12.256;2022-10-16T13:54:22;22.30;99.90
5978;DHT22;3015;51.390;12.256;2022-10-16T13:56:48;22.10;99.90
5978;DHT22;3015;51.390;12.256;2022-10-16T13:59:34;22.00;99.90
5978;DHT22;3015;51.390;12.256;2022-10-16T14:02:08;21.90;99.90
5978;DHT22;3015;51.390;12.256;2022-10-16T14:04:38;21.80;99.90
5978;DHT22;3015;51.390;12.256;2022-10-16T14:07:04;21.70;99.90
5978;DHT22;3015;51.390;12.256;2022-10-16T14:09:30;21.60;99.90
5978;DHT22;3015;51.390;12.256;2022-10-16T14:12:00;21.50;99.90
5978;DHT22;3015;51.390;12.256;2022-10-16T14:14:32;21.40;99.90
5978;DHT22;3015;51.390;12.256;2022-10-16T14:16:59;21.40;99.90
5978;DHT22;3015;51.390;12.256;2022-10-16T14:19:27;21.30;99.90
5978;DHT22;3015;51.390;12.256;2022-10-16T14:21:54;21.30;99.90
5978;DHT22;3015;51.390;12.256;2022-10-16T14:26:53;21.40;99.90
5978;DHT22;3015;51.390;12.256;2022-10-16T14:29:22;21.40;99.90
5978;DHT22;3015;51.390;12.256;2022-10-16T14:32:20;21.60;99.90
5978;DHT22;3015;51.390;12.256;2022-10-16T14:34:53;21.60;99.90
5978;DHT22;3015;51.390;12.256;2022-10-16T14:39:51;21.80;99.90
5978;DHT22;3015;51.390;12.256;2022-10-16T14:42:19;21.70;99.90
5978;DHT22;3015;51.390;12.256;2022-10-16T14:44:46;21.60;99.90
5978;DHT22;3015;51.390;12.256;2022-10-16T14:47:17;21.50;99.90
5978;DHT22;3015;51.390;12.256;2022-10-16T14:49:49;21.50;99.90
5978;DHT22;3015;51.390;12.256;2022-10-16T14:52:15;21.70;99.90
5978;DHT22;3015;51.390;12.256;2022-10-16T14:54:41;21.70;99.90
5978;DHT22;3015;51.390;12.256;2022-10-16T14:57:19;21.60;99.90
5978;DHT22;3015;51.390;12.256;2022-10-16T14:59:46;21.50;99.90
5978;DHT22;3015;51.390;12.256;2022-10-16T15:02:33;21.50;99.90
5978;DHT22;3015;51.390;12.256;2022-10-16T15:05:15;21.40;99.90
5978;DHT22;3015;51.390;12.256;2022-10-16T15:07:41;21.20;99.90
5978;DHT22;3015;51.390;12.256;2022-10-16T15:10:07;21.10;99.90
5978;DHT22;3015;51.390;12.256;2022-10-16T15:12:33;21.00;99.90
5978;DHT22;3015;51.390;12.256;2022-10-16T15:14:58;20.90;99.90
5978;DHT22;3015;51.390;12.256;2022-10-16T15:17:24;20.90;99.90
5978;DHT22;3015;51.390;12.256;2022-10-16T15:19:50;20.80;99.90
5978;DHT22;3015;51.390;12.256;2022-10-16T15:22:16;20.70;99.90
5978;DHT22;3015;51.390;12.256;2022-10-16T15:24:43;20.60;99.90
5978;DHT22;3015;51.390;12.256;2022-10-16T15:27:08;20.60;99.90
5978;DHT22;3015;51.390;12.256;2022-10-16T15:29:35;20.50;99.90
5978;DHT22;3015;51.390;12.256;2022-10-16T15:32:00;20.30;99.90
5978;DHT22;3015;51.390;12.256;2022-10-16T15:34:26;20.20;99.90
5978;DHT22;3015;51.390;12.256;2022-10-16T15:36:52;20.30;99.90
5978;DHT22;3015;51.390;12.256;2022-10-16T15:39:21;20.10;99.90
5978;DHT22;3015;51.390;12.256;2022-10-16T15:41:47;19.90;1.00
5978;DHT22;3015;51.390;12.256;2022-10-16T15:44:16;20.00;1.00
5978;DHT22;3015;51.390;12.256;2022-10-16T15:46:42;19.90;1.00
5978;DHT22;3015;51.390;12.256;2022-10-16T15:49:08;19.80;1.00
5978;DHT22;3015;51.390;12.256;2022-10-16T15:51:38;19.70;1.00
5978;DHT22;3015;51.390;12.256;2022-10-16T15:54:04;19.60;1.00
5978;DHT22;3015;51.390;12.256;2022-10-16T15:56:30;19.50;1.00
5978;DHT22;3015;51.390;12.256;2022-10-16T15:58:59;19.40;1.00
5978;DHT22;3015;51.390;12.256;2022-10-16T16:01:26;19.30;1.00
5978;DHT22;3015;51.390;12.256;2022-10-16T16:03:55;19.10;1.00
5978;DHT22;3015;51.390;12.256;2022-10-16T16:06:22;18.90;1.00
5978;DHT22;3015;51.390;12.256;2022-10-16T16:08:49;18.70;1.00
5978;DHT22;3015;51.390;12.256;2022-10-16T16:11:16;18.50;1.00
5978;DHT22;3015;51.390;12.256;2022-10-16T16:13:42;18.30;99.90
5978;DHT22;3015;51.390;12.256;2022-10-16T16:16:10;18.10;98.20
5978;DHT22;3015;51.390;12.256;2022-10-16T16:18:36;17.90;99.90
5978;DHT22;3015;51.390;12.256;2022-10-16T16:21:02;17.80;99.90
5978;DHT22;3015;51.390;12.256;2022-10-16T16:23:28;17.60;99.90
5978;DHT22;3015;51.390;12.256;2022-10-16T16:28:35;17.20;1.00
5978;DHT22;3015;51.390;12.256;2022-10-16T16:31:01;17.10;1.00
5978;DHT22;3015;51.390;12.256;2022-10-16T16:33:27;16.90;1.00
5978;DHT22;3015;51.390;12.256;2022-10-16T16:35:59;16.70;1.00
5978;DHT22;3015;51.390;12.256;2022-10-16T16:38:27;16.60;1.00
5978;DHT22;3015;51.390;12.256;2022-10-16T16:40:53;16.40;1.00
5978;DHT22;3015;51.390;12.256;2022-10-16T16:43:19;16.40;99.90
5978;DHT22;3015;51.390;12.256;2022-10-16T16:45:45;16.30;99.90
5978;DHT22;3015;51.390;12.256;2022-10-16T16:48:10;16.20;99.90
5978;DHT22;3015;51.390;12.256;2022-10-16T16:50:36;16.00;99.90
5978;DHT22;3015;51.390;12.256;2022-10-16T16:53:02;15.90;99.90
5978;DHT22;3015;51.390;12.256;2022-10-16T16:55:28;15.80;1.00
5978;DHT22;3015;51.390;12.256;2022-10-16T16:57:54;15.60;99.90
5978;DHT22;3015;51.390;12.256;2022-10-16T17:00:19;15.50;99.90
5978;DHT22;3015;51.390;12.256;2022-10-16T17:02:51;15.40;99.90
5978;DHT22;3015;51.390;12.256;2022-10-16T17:05:17;15.40;99.90
5978;DHT22;3015;51.390;12.256;2022-10-16T17:07:43;15.60;99.90
5978;DHT22;3015;51.390;12.256;2022-10-16T17:10:09;15.50;1.00
5978;DHT22;3015;51.390;12.256;2022-10-16T17:12:35;15.50;1.00
5978;DHT22;3015;51.390;12.256;2022-10-16T17:15:01;15.50;1.00
5978;DHT22;3015;51.390;12.256;2022-10-16T17:17:27;15.50;1.00
5978;DHT22;3015;51.390;12.256;2022-10-16T17:19:52;15.40;1.00
5978;DHT22;3015;51.390;12.256;2022-10-16T17:22:19;15.40;1.00
5978;DHT22;3015;51.390;12.256;2022-10-16T17:24:48;15.40;1.00
5978;DHT22;3015;51.390;12.256;2022-10-16T17:27:15;15.40;99.90
5978;DHT22;3015;51.390;12.256;2022-10-16T17:29:40;15.30;21.50
5978;DHT22;3015;51.390;12.256;2022-10-16T17:32:06;15.20;99.90
5978;DHT22;3015;51.390;12.256;2022-10-16T17:34:32;15.20;82.00
5978;DHT22;3015;51.390;12.256;2022-10-16T17:36:57;15.20;99.90
5978;DHT22;3015;51.390;12.256;2022-10-16T17:39:23;15.20;99.90
5978;DHT22;3015;51.390;12.256;2022-10-16T17:41:49;15.20;1.00
5978;DHT22;3015;51.390;12.256;2022-10-16T17:44:15;15.20;1.00
5978;DHT22;3015;51.390;12.256;2022-10-16T17:46:48;15.10;1.00